createdAt,value
2022-12-31T00:00:48.430Z,69.29
2022-12-31T00:01:49.391Z,69.49
2022-12-31T00:02:50.434Z,69.29
2022-12-31T00:03:50.838Z,69.29
2022-12-31T00:04:51.717Z,68.77
2022-12-31T00:05:52.598Z,69.09
2022-12-31T00:06:53.488Z,69.29
2022-12-31T00:07:54.372Z,69.29
2022-12-31T00:08:55.267Z,68.77
2022-12-31T00:09:56.132Z,68.88
2022-12-31T00:10:57.017Z,69.09
2022-12-31T00:11:57.910Z,68.88
2022-12-31T00:12:58.801Z,68.98
2022-12-31T00:13:59.719Z,69.09
2022-12-31T00:15:00.573Z,69.18
2022-12-31T00:16:05.417Z,68.98
2022-12-31T00:17:03.250Z,69.09
2022-12-31T00:18:03.130Z,68.88
2022-12-31T00:19:04.030Z,68.46
2022-12-31T00:20:04.925Z,68.88
2022-12-31T00:21:05.823Z,68.88
2022-12-31T00:22:06.734Z,68.88
2022-12-31T00:23:07.631Z,68.37
2022-12-31T00:24:08.579Z,68.46
2022-12-31T00:25:09.419Z,68.46
2022-12-31T00:26:10.324Z,68.77
2022-12-31T00:27:11.196Z,68.67
2022-12-31T00:28:12.097Z,68.88
2022-12-31T00:29:12.993Z,68.88
2022-12-31T00:30:13.873Z,68.64
2022-12-31T00:31:14.802Z,68.57
2022-12-31T00:32:15.652Z,68.67
2022-12-31T00:33:16.544Z,68.77
2022-12-31T00:34:17.425Z,68.57
2022-12-31T00:35:18.305Z,68.88
2022-12-31T00:36:19.194Z,69.09
2022-12-31T00:37:20.079Z,68.67
2022-12-31T00:38:20.964Z,68.67
2022-12-31T00:39:21.991Z,68.74
2022-12-31T00:40:22.812Z,68.43
2022-12-31T00:41:23.697Z,68.54
2022-12-31T00:42:24.590Z,68.64
2022-12-31T00:43:25.483Z,68.74
2022-12-31T00:44:26.363Z,68.85
2022-12-31T00:45:27.241Z,68.85
2022-12-31T00:46:28.147Z,68.64
2022-12-31T00:47:29.034Z,68.85
2022-12-31T00:48:29.916Z,68.95
2022-12-31T00:49:30.797Z,69.15
2022-12-31T00:50:31.680Z,69.26
2022-12-31T00:51:32.587Z,69.15
2022-12-31T00:52:33.477Z,69.05
2022-12-31T00:53:34.362Z,68.85
2022-12-31T00:54:35.259Z,69.05
2022-12-31T00:55:36.125Z,68.95
2022-12-31T00:56:37.030Z,68.95
2022-12-31T00:57:37.916Z,68.95
2022-12-31T00:58:38.810Z,69.15
2022-12-31T00:59:39.688Z,69.15
2022-12-31T01:00:40.568Z,69.05
2022-12-31T01:01:41.557Z,69.15
2022-12-31T01:02:42.159Z,69.15
2022-12-31T01:03:42.556Z,68.74
2022-12-31T01:04:43.430Z,68.64
2022-12-31T01:05:44.305Z,69.05
2022-12-31T01:06:45.199Z,69.26
2022-12-31T01:07:46.089Z,69.26
2022-12-31T01:08:46.961Z,68.85
2022-12-31T01:09:47.872Z,68.95
2022-12-31T01:10:48.739Z,69.15
2022-12-31T01:11:49.633Z,69.36
2022-12-31T01:12:50.541Z,69.15
2022-12-31T01:13:51.399Z,68.95
2022-12-31T01:14:52.307Z,68.95
2022-12-31T01:15:53.261Z,69.26
2022-12-31T01:16:54.144Z,69.26
2022-12-31T01:17:55.029Z,68.85
2022-12-31T01:18:55.919Z,68.95
2022-12-31T01:19:56.822Z,69.15
2022-12-31T01:20:57.689Z,69.26
2022-12-31T01:21:58.610Z,68.85
2022-12-31T01:22:59.488Z,69.15
2022-12-31T01:24:00.359Z,68.85
2022-12-31T01:25:01.299Z,69.15
2022-12-31T01:26:02.136Z,69.05
2022-12-31T01:27:03.046Z,69.05
2022-12-31T01:28:03.928Z,69.15
2022-12-31T01:29:04.811Z,69.05
2022-12-31T01:30:05.700Z,69.26
2022-12-31T01:31:06.606Z,69.05
2022-12-31T01:32:07.496Z,68.95
2022-12-31T01:33:08.351Z,69.15
2022-12-31T01:34:09.249Z,69.05
2022-12-31T01:35:10.135Z,69.15
2022-12-31T01:36:11.003Z,68.85
2022-12-31T01:37:11.902Z,68.85
2022-12-31T01:38:12.781Z,68.85
2022-12-31T01:39:13.661Z,68.85
2022-12-31T01:40:14.554Z,68.95
2022-12-31T01:41:15.421Z,69.15
2022-12-31T01:42:16.315Z,68.95
2022-12-31T01:43:17.195Z,68.95
2022-12-31T01:44:18.081Z,69.15
2022-12-31T01:45:18.967Z,68.95
2022-12-31T01:46:19.910Z,69.05
2022-12-31T01:47:20.786Z,68.95
2022-12-31T01:48:21.674Z,68.85
2022-12-31T01:49:22.559Z,68.85
2022-12-31T01:50:23.446Z,69.05
2022-12-31T01:51:24.320Z,69.05
2022-12-31T01:52:25.247Z,68.85
2022-12-31T01:53:26.128Z,69.05
2022-12-31T01:54:27.026Z,68.64
2022-12-31T01:55:27.925Z,70.59
2022-12-31T01:56:28.783Z,73.27
2022-12-31T01:57:29.673Z,71.83
2022-12-31T01:58:30.559Z,70.08
2022-12-31T01:59:31.444Z,69.46
2022-12-31T02:00:32.327Z,68.74
2022-12-31T02:01:33.342Z,68.54
2022-12-31T02:02:33.885Z,68.74
2022-12-31T02:03:34.281Z,68.54
2022-12-31T02:04:35.164Z,68.85
2022-12-31T02:05:36.047Z,68.64
2022-12-31T02:06:36.937Z,68.54
2022-12-31T02:07:37.857Z,68.74
2022-12-31T02:08:42.146Z,68.74
2022-12-31T02:09:39.311Z,68.85
2022-12-31T02:10:40.223Z,68.85
2022-12-31T02:11:41.073Z,68.95
2022-12-31T02:12:41.979Z,68.54
2022-12-31T02:13:42.849Z,68.64
2022-12-31T02:14:43.748Z,68.64
2022-12-31T02:15:44.637Z,68.64
2022-12-31T02:16:45.498Z,68.74
2022-12-31T02:17:46.388Z,68.54
2022-12-31T02:18:47.274Z,68.54
2022-12-31T02:19:48.154Z,68.74
2022-12-31T02:20:49.050Z,68.74
2022-12-31T02:21:49.947Z,68.85
2022-12-31T02:22:50.938Z,68.64
2022-12-31T02:23:51.487Z,68.64
2022-12-31T02:24:52.360Z,68.64
2022-12-31T02:25:53.262Z,68.74
2022-12-31T02:26:54.133Z,68.85
2022-12-31T02:27:55.018Z,68.95
2022-12-31T02:28:55.935Z,68.88
2022-12-31T02:29:56.799Z,68.74
2022-12-31T02:30:57.736Z,68.88
2022-12-31T02:31:58.584Z,68.95
2022-12-31T02:33:01.741Z,68.98
2022-12-31T02:34:00.399Z,68.98
2022-12-31T02:35:01.293Z,68.98
2022-12-31T02:36:02.165Z,69.18
2022-12-31T02:37:03.062Z,69.18
2022-12-31T02:38:03.969Z,69.09
2022-12-31T02:39:04.832Z,69.18
2022-12-31T02:40:05.699Z,69.29
2022-12-31T02:41:06.609Z,69.18
2022-12-31T02:42:07.465Z,69.09
2022-12-31T02:43:08.358Z,69.09
2022-12-31T02:44:09.241Z,69.09
2022-12-31T02:45:10.125Z,69.18
2022-12-31T02:46:11.063Z,69.18
2022-12-31T02:47:11.917Z,69.29
2022-12-31T02:48:12.803Z,69.29
2022-12-31T02:49:13.688Z,69.29
2022-12-31T02:50:14.585Z,69.26
2022-12-31T02:51:15.458Z,69.15
2022-12-31T02:52:16.335Z,69.26
2022-12-31T02:53:17.229Z,69.15
2022-12-31T02:54:18.109Z,68.95
2022-12-31T02:55:19.006Z,69.05
2022-12-31T02:56:19.910Z,69.05
2022-12-31T02:57:20.753Z,69.26
2022-12-31T02:58:21.643Z,69.15
2022-12-31T02:59:22.529Z,69.46
2022-12-31T03:00:23.464Z,69.46
2022-12-31T03:01:24.380Z,69.46
2022-12-31T03:02:25.405Z,69.26
2022-12-31T03:03:25.775Z,69.46
2022-12-31T03:04:26.655Z,69.56
2022-12-31T03:05:27.538Z,69.67
2022-12-31T03:06:28.426Z,69.67
2022-12-31T03:07:29.317Z,69.87
2022-12-31T03:08:30.205Z,69.98
2022-12-31T03:09:31.079Z,70.08
2022-12-31T03:10:31.960Z,69.87
2022-12-31T03:11:32.867Z,69.87
2022-12-31T03:12:33.727Z,70.18
2022-12-31T03:13:34.622Z,70.18
2022-12-31T03:14:35.542Z,70.39
2022-12-31T03:15:36.396Z,70.28
2022-12-31T03:16:37.347Z,70.39
2022-12-31T03:17:38.193Z,70.49
2022-12-31T03:18:39.110Z,70.59
2022-12-31T03:19:39.998Z,70.39
2022-12-31T03:20:40.898Z,70.49
2022-12-31T03:21:41.803Z,70.49
2022-12-31T03:22:42.703Z,70.59
2022-12-31T03:23:43.611Z,70.70
2022-12-31T03:24:44.511Z,70.79
2022-12-31T03:25:45.384Z,70.79
2022-12-31T03:26:46.294Z,70.90
2022-12-31T03:27:47.163Z,70.90
2022-12-31T03:28:48.212Z,71.00
2022-12-31T03:29:48.535Z,71.11
2022-12-31T03:30:49.419Z,71.11
2022-12-31T03:31:50.345Z,71.11
2022-12-31T03:32:51.193Z,71.21
2022-12-31T03:33:52.077Z,71.31
2022-12-31T03:34:52.961Z,71.41
2022-12-31T03:35:53.843Z,71.41
2022-12-31T03:36:54.726Z,71.41
2022-12-31T03:37:55.609Z,71.72
2022-12-31T03:38:56.504Z,71.51
2022-12-31T03:39:57.377Z,71.72
2022-12-31T03:40:58.273Z,72.03
2022-12-31T03:41:59.178Z,72.03
2022-12-31T03:43:00.066Z,71.93
2022-12-31T03:44:00.978Z,71.62
2022-12-31T03:45:01.860Z,71.83
2022-12-31T03:46:02.840Z,71.83
2022-12-31T03:47:03.677Z,71.93
2022-12-31T03:48:04.584Z,71.83
2022-12-31T03:49:05.484Z,72.13
2022-12-31T03:50:06.383Z,72.03
2022-12-31T03:51:07.276Z,71.93
2022-12-31T03:52:08.186Z,71.83
2022-12-31T03:53:09.084Z,71.79
2022-12-31T03:54:09.987Z,72.13
2022-12-31T03:55:10.885Z,72.03
2022-12-31T03:56:11.788Z,71.93
2022-12-31T03:57:12.715Z,72.13
2022-12-31T03:58:13.596Z,72.13
2022-12-31T03:59:14.531Z,72.24
2022-12-31T04:00:15.401Z,72.24
2022-12-31T04:01:16.443Z,72.55
2022-12-31T04:02:17.003Z,72.34
2022-12-31T04:03:17.469Z,72.24
2022-12-31T04:04:18.353Z,72.44
2022-12-31T04:05:19.237Z,72.55
2022-12-31T04:06:20.121Z,72.44
2022-12-31T04:07:21.012Z,72.34
2022-12-31T04:08:21.902Z,72.44
2022-12-31T04:09:22.790Z,72.55
2022-12-31T04:10:23.695Z,72.65
2022-12-31T04:11:24.595Z,72.65
2022-12-31T04:12:25.518Z,72.55
2022-12-31T04:13:26.381Z,72.44
2022-12-31T04:14:27.363Z,72.44
2022-12-31T04:15:28.243Z,72.44
2022-12-31T04:16:29.160Z,72.44
2022-12-31T04:17:30.016Z,72.24
2022-12-31T04:18:30.912Z,72.24
2022-12-31T04:19:31.815Z,72.34
2022-12-31T04:20:32.699Z,72.24
2022-12-31T04:21:35.355Z,72.34
2022-12-31T04:22:34.256Z,72.34
2022-12-31T04:23:35.141Z,72.24
2022-12-31T04:24:36.033Z,72.03
2022-12-31T04:25:36.916Z,72.24
2022-12-31T04:26:37.798Z,72.34
2022-12-31T04:27:38.796Z,72.24
2022-12-31T04:28:39.612Z,72.24
2022-12-31T04:29:40.504Z,72.24
2022-12-31T04:30:41.395Z,72.13
2022-12-31T04:31:42.316Z,72.24
2022-12-31T04:32:43.181Z,72.03
2022-12-31T04:33:44.037Z,71.83
2022-12-31T04:34:44.941Z,72.03
2022-12-31T04:35:45.812Z,72.03
2022-12-31T04:36:46.707Z,72.13
2022-12-31T04:37:47.589Z,71.93
2022-12-31T04:38:48.455Z,71.83
2022-12-31T04:39:49.348Z,72.13
2022-12-31T04:40:50.241Z,72.34
2022-12-31T04:41:51.122Z,71.93
2022-12-31T04:42:52.048Z,72.03
2022-12-31T04:43:52.887Z,72.03
2022-12-31T04:44:53.789Z,71.93
2022-12-31T04:45:54.693Z,72.03
2022-12-31T04:46:55.548Z,72.13
2022-12-31T04:47:56.450Z,72.06
2022-12-31T04:48:57.375Z,71.96
2022-12-31T04:49:58.269Z,71.96
2022-12-31T04:50:59.150Z,72.27
2022-12-31T04:52:00.050Z,72.27
2022-12-31T04:53:00.907Z,72.17
2022-12-31T04:54:01.805Z,72.27
2022-12-31T04:55:02.700Z,72.38
2022-12-31T04:56:03.609Z,72.38
2022-12-31T04:57:04.505Z,72.47
2022-12-31T04:58:05.438Z,72.47
2022-12-31T04:59:06.288Z,72.47
2022-12-31T05:00:07.180Z,72.58
2022-12-31T05:01:08.253Z,72.58
2022-12-31T05:02:08.913Z,72.78
2022-12-31T05:03:09.398Z,72.78
2022-12-31T05:04:10.253Z,72.89
2022-12-31T05:05:11.142Z,72.78
2022-12-31T05:06:12.027Z,73.09
2022-12-31T05:07:12.908Z,73.09
2022-12-31T05:08:13.796Z,73.19
2022-12-31T05:09:14.675Z,73.09
2022-12-31T05:10:15.579Z,73.30
2022-12-31T05:11:16.473Z,73.19
2022-12-31T05:12:17.380Z,75.97
2022-12-31T05:13:18.306Z,77.20
2022-12-31T05:14:19.259Z,74.84
2022-12-31T05:15:20.110Z,74.22
2022-12-31T05:16:21.063Z,73.71
2022-12-31T05:17:21.897Z,73.40
2022-12-31T05:18:22.782Z,73.50
2022-12-31T05:19:23.672Z,73.61
2022-12-31T05:20:24.571Z,73.40
2022-12-31T05:21:25.450Z,73.30
2022-12-31T05:22:26.352Z,73.40
2022-12-31T05:23:27.218Z,73.19
2022-12-31T05:24:28.104Z,73.19
2022-12-31T05:25:28.996Z,73.09
2022-12-31T05:26:29.893Z,73.09
2022-12-31T05:27:30.764Z,72.99
2022-12-31T05:28:31.672Z,72.99
2022-12-31T05:29:32.531Z,72.78
2022-12-31T05:30:33.462Z,72.89
2022-12-31T05:31:34.311Z,72.85
2022-12-31T05:32:35.192Z,72.55
2022-12-31T05:33:36.075Z,72.65
2022-12-31T05:34:36.965Z,72.44
2022-12-31T05:35:37.852Z,72.44
2022-12-31T05:36:38.733Z,72.55
2022-12-31T05:37:39.613Z,72.55
2022-12-31T05:38:40.495Z,72.34
2022-12-31T05:39:41.377Z,72.34
2022-12-31T05:40:42.262Z,72.44
2022-12-31T05:41:43.155Z,72.34
2022-12-31T05:42:44.034Z,72.24
2022-12-31T05:43:44.938Z,72.34
2022-12-31T05:44:45.788Z,72.47
2022-12-31T05:45:46.705Z,72.47
2022-12-31T05:46:47.561Z,72.47
2022-12-31T05:47:48.444Z,72.47
2022-12-31T05:48:49.328Z,72.47
2022-12-31T05:49:50.214Z,72.58
2022-12-31T05:50:51.105Z,72.68
2022-12-31T05:51:51.990Z,72.78
2022-12-31T05:52:52.871Z,72.89
2022-12-31T05:53:53.760Z,72.68
2022-12-31T05:54:54.629Z,72.89
2022-12-31T05:55:55.681Z,72.89
2022-12-31T05:56:56.016Z,72.89
2022-12-31T05:57:56.906Z,72.78
2022-12-31T05:58:57.823Z,72.99
2022-12-31T05:59:58.690Z,73.02
2022-12-31T06:00:59.607Z,73.13
2022-12-31T06:02:00.444Z,73.02
2022-12-31T06:03:01.467Z,72.92
2022-12-31T06:04:01.900Z,73.02
2022-12-31T06:05:02.820Z,73.23
2022-12-31T06:06:03.728Z,73.33
2022-12-31T06:07:04.591Z,73.54
2022-12-31T06:08:05.475Z,73.23
2022-12-31T06:09:06.358Z,73.33
2022-12-31T06:10:07.250Z,73.23
2022-12-31T06:11:08.133Z,73.54
2022-12-31T06:12:09.019Z,73.23
2022-12-31T06:13:09.899Z,73.13
2022-12-31T06:14:10.808Z,73.13
2022-12-31T06:15:11.671Z,73.13
2022-12-31T06:16:12.575Z,72.92
2022-12-31T06:17:13.449Z,72.81
2022-12-31T06:18:14.328Z,73.02
2022-12-31T06:19:15.208Z,73.02
2022-12-31T06:20:16.095Z,73.02
2022-12-31T06:21:16.989Z,73.02
2022-12-31T06:22:17.872Z,73.13
2022-12-31T06:23:18.754Z,72.81
2022-12-31T06:24:19.645Z,72.92
2022-12-31T06:25:20.523Z,72.92
2022-12-31T06:26:21.414Z,72.92
2022-12-31T06:27:22.297Z,72.92
2022-12-31T06:28:23.192Z,72.72
2022-12-31T06:29:24.088Z,72.72
2022-12-31T06:30:24.953Z,73.02
2022-12-31T06:31:25.877Z,72.92
2022-12-31T06:32:26.738Z,73.54
2022-12-31T06:33:27.629Z,73.74
2022-12-31T06:34:28.503Z,73.02
2022-12-31T06:35:29.388Z,72.61
2022-12-31T06:36:30.293Z,72.61
2022-12-31T06:37:31.112Z,72.61
2022-12-31T06:38:31.999Z,72.72
2022-12-31T06:39:32.901Z,72.72
2022-12-31T06:40:33.744Z,72.72
2022-12-31T06:41:34.632Z,72.92
2022-12-31T06:42:35.533Z,73.02
2022-12-31T06:43:36.406Z,73.02
2022-12-31T06:44:37.312Z,73.02
2022-12-31T06:45:38.136Z,72.92
2022-12-31T06:46:39.053Z,72.81
2022-12-31T06:47:39.879Z,72.61
2022-12-31T06:48:40.703Z,72.92
2022-12-31T06:49:41.545Z,72.72
2022-12-31T06:50:42.373Z,72.81
2022-12-31T06:51:43.214Z,72.81
2022-12-31T06:52:44.044Z,72.72
2022-12-31T06:53:44.869Z,72.72
2022-12-31T06:54:45.738Z,72.61
2022-12-31T06:55:46.594Z,72.30
2022-12-31T06:56:47.404Z,72.61
2022-12-31T06:57:48.250Z,72.30
2022-12-31T06:58:49.066Z,72.41
2022-12-31T06:59:50.005Z,72.51
2022-12-31T07:00:50.786Z,72.41
2022-12-31T07:01:51.760Z,74.67
2022-12-31T07:02:52.678Z,73.85
2022-12-31T07:03:53.476Z,72.61
2022-12-31T07:04:54.303Z,72.09
2022-12-31T07:05:55.135Z,71.89
2022-12-31T07:06:55.975Z,72.51
2022-12-31T07:07:56.803Z,72.09
2022-12-31T07:08:57.646Z,72.20
2022-12-31T07:09:58.482Z,72.20
2022-12-31T07:10:59.324Z,72.00
2022-12-31T07:12:00.140Z,72.00
2022-12-31T07:13:00.971Z,72.00
2022-12-31T07:14:01.801Z,71.89
2022-12-31T07:15:02.714Z,72.00
2022-12-31T07:16:03.554Z,71.89
2022-12-31T07:17:04.411Z,71.89
2022-12-31T07:18:05.195Z,72.30
2022-12-31T07:19:06.025Z,72.41
2022-12-31T07:20:06.873Z,71.89
2022-12-31T07:21:07.710Z,71.58
2022-12-31T07:22:08.535Z,71.89
2022-12-31T07:23:09.354Z,71.89
2022-12-31T07:24:10.194Z,71.55
2022-12-31T07:25:11.016Z,71.66
2022-12-31T07:26:11.863Z,71.55
2022-12-31T07:27:12.684Z,71.45
2022-12-31T07:28:13.514Z,71.24
2022-12-31T07:29:14.343Z,71.34
2022-12-31T07:30:15.197Z,71.14
2022-12-31T07:31:16.039Z,71.14
2022-12-31T07:32:16.841Z,71.24
2022-12-31T07:33:17.682Z,71.34
2022-12-31T07:34:18.501Z,71.34
2022-12-31T07:35:19.330Z,71.14
2022-12-31T07:36:20.173Z,71.24
2022-12-31T07:37:21.000Z,71.14
2022-12-31T07:38:21.837Z,71.04
2022-12-31T07:39:22.659Z,70.94
2022-12-31T07:40:23.495Z,70.94
2022-12-31T07:41:24.330Z,71.04
2022-12-31T07:42:25.149Z,70.94
2022-12-31T07:43:25.979Z,70.94
2022-12-31T07:44:26.810Z,70.94
2022-12-31T07:45:27.657Z,70.94
2022-12-31T07:46:28.651Z,70.73
2022-12-31T07:47:28.949Z,70.73
2022-12-31T07:48:29.793Z,70.83
2022-12-31T07:49:30.619Z,70.49
2022-12-31T07:50:31.457Z,70.70
2022-12-31T07:51:32.288Z,70.59
2022-12-31T07:52:33.118Z,70.49
2022-12-31T07:53:33.947Z,70.49
2022-12-31T07:54:34.794Z,70.39
2022-12-31T07:55:35.623Z,71.21
2022-12-31T07:56:36.472Z,70.49
2022-12-31T07:57:37.301Z,70.70
2022-12-31T07:58:38.123Z,70.39
2022-12-31T07:59:38.965Z,70.79
2022-12-31T08:00:39.866Z,70.28
2022-12-31T08:01:40.807Z,70.08
2022-12-31T08:02:41.274Z,70.39
2022-12-31T08:03:42.094Z,69.98
2022-12-31T08:04:42.919Z,70.18
2022-12-31T08:05:43.749Z,70.46
2022-12-31T08:06:44.576Z,74.05
2022-12-31T08:07:45.409Z,71.08
2022-12-31T08:08:46.238Z,70.25
2022-12-31T08:09:47.066Z,69.94
2022-12-31T08:10:47.898Z,70.15
2022-12-31T08:11:48.746Z,69.94
2022-12-31T08:12:49.617Z,69.64
2022-12-31T08:13:50.396Z,69.74
2022-12-31T08:14:51.226Z,69.84
2022-12-31T08:15:52.147Z,70.04
2022-12-31T08:16:52.935Z,69.64
2022-12-31T08:17:53.768Z,69.43
2022-12-31T08:18:54.597Z,69.53
2022-12-31T08:19:55.424Z,69.53
2022-12-31T08:20:56.266Z,69.32
2022-12-31T08:21:57.102Z,69.43
2022-12-31T08:22:57.943Z,69.12
2022-12-31T08:23:58.768Z,69.32
2022-12-31T08:24:59.580Z,69.29
2022-12-31T08:26:00.414Z,69.32
2022-12-31T08:27:01.260Z,69.19
2022-12-31T08:28:02.090Z,68.99
2022-12-31T08:29:02.909Z,69.09
2022-12-31T08:30:03.745Z,69.50
2022-12-31T08:31:04.579Z,69.19
2022-12-31T08:32:05.399Z,69.29
2022-12-31T08:33:06.266Z,69.19
2022-12-31T08:34:07.096Z,69.19
2022-12-31T08:35:07.910Z,69.19
2022-12-31T08:36:08.744Z,69.32
2022-12-31T08:37:09.583Z,69.60
2022-12-31T08:38:10.411Z,69.60
2022-12-31T08:39:11.226Z,69.29
2022-12-31T08:40:12.098Z,69.32
2022-12-31T08:41:12.928Z,69.23
2022-12-31T08:42:13.766Z,69.43
2022-12-31T08:43:14.619Z,69.43
2022-12-31T08:44:15.445Z,69.32
2022-12-31T08:45:16.278Z,69.53
2022-12-31T08:46:17.182Z,69.32
2022-12-31T08:47:17.975Z,69.53
2022-12-31T08:48:18.804Z,69.94
2022-12-31T08:49:19.635Z,69.74
2022-12-31T08:50:20.463Z,69.84
2022-12-31T08:51:21.299Z,69.53
2022-12-31T08:52:22.133Z,69.53
2022-12-31T08:53:22.969Z,69.64
2022-12-31T08:54:23.817Z,69.43
2022-12-31T08:55:24.650Z,70.87
2022-12-31T08:56:25.479Z,73.74
2022-12-31T08:57:26.332Z,75.45
2022-12-31T08:58:27.149Z,71.66
2022-12-31T08:59:27.970Z,70.22
2022-12-31T09:00:28.798Z,69.91
2022-12-31T09:01:29.700Z,69.60
2022-12-31T09:02:30.507Z,69.70
2022-12-31T09:03:31.334Z,69.70
2022-12-31T09:04:32.237Z,69.40
2022-12-31T09:05:33.098Z,69.09
2022-12-31T09:06:33.886Z,69.09
2022-12-31T09:07:34.747Z,69.60
2022-12-31T09:08:35.574Z,69.50
2022-12-31T09:09:36.400Z,69.40
2022-12-31T09:10:37.223Z,69.47
2022-12-31T09:11:38.045Z,69.57
2022-12-31T09:12:38.889Z,69.47
2022-12-31T09:13:39.716Z,69.57
2022-12-31T09:14:40.547Z,69.37
2022-12-31T09:15:41.372Z,69.37
2022-12-31T09:16:42.284Z,69.67
2022-12-31T09:17:43.139Z,69.78
2022-12-31T09:18:43.979Z,69.88
2022-12-31T09:19:44.800Z,70.08
2022-12-31T09:20:45.631Z,69.98
2022-12-31T09:21:46.475Z,69.98
2022-12-31T09:22:47.294Z,69.64
2022-12-31T09:23:48.122Z,69.84
2022-12-31T09:24:48.954Z,69.23
2022-12-31T09:25:49.783Z,69.54
2022-12-31T09:26:50.629Z,69.43
2022-12-31T09:27:51.496Z,69.33
2022-12-31T09:28:52.305Z,68.82
2022-12-31T09:29:53.129Z,69.43
2022-12-31T09:30:53.961Z,69.23
2022-12-31T09:31:54.851Z,68.72
2022-12-31T09:33:00.756Z,68.82
2022-12-31T09:33:57.371Z,68.51
2022-12-31T09:34:57.193Z,68.30
2022-12-31T09:35:58.024Z,68.17
2022-12-31T09:36:58.852Z,68.27
2022-12-31T09:37:59.698Z,67.86
2022-12-31T09:39:00.517Z,67.97
2022-12-31T09:40:01.354Z,67.76
2022-12-31T09:41:02.174Z,67.97
2022-12-31T09:42:03.006Z,67.86
2022-12-31T09:43:03.833Z,68.04
2022-12-31T09:44:04.663Z,68.04
2022-12-31T09:45:05.489Z,67.94
2022-12-31T09:46:06.388Z,67.63
2022-12-31T09:47:07.297Z,67.32
2022-12-31T09:48:08.062Z,67.73
2022-12-31T09:49:08.888Z,67.32
2022-12-31T09:50:09.720Z,67.63
2022-12-31T09:51:10.558Z,67.32
2022-12-31T09:52:11.382Z,67.32
2022-12-31T09:53:12.225Z,68.14
2022-12-31T09:54:13.047Z,67.94
2022-12-31T09:55:13.887Z,67.94
2022-12-31T09:56:14.738Z,67.11
2022-12-31T09:57:15.532Z,67.63
2022-12-31T09:58:16.389Z,67.52
2022-12-31T09:59:17.200Z,67.80
2022-12-31T10:00:18.028Z,67.19
2022-12-31T10:01:19.008Z,67.40
2022-12-31T10:02:19.563Z,67.40
2022-12-31T10:03:19.958Z,67.19
2022-12-31T10:04:23.140Z,67.19
2022-12-31T10:05:21.613Z,67.40
2022-12-31T10:06:22.432Z,67.08
2022-12-31T10:07:23.253Z,66.78
2022-12-31T10:08:24.099Z,67.08
2022-12-31T10:09:24.932Z,67.08
2022-12-31T10:10:25.766Z,66.88
2022-12-31T10:11:26.576Z,66.98
2022-12-31T10:12:27.404Z,66.98
2022-12-31T10:13:28.245Z,67.19
2022-12-31T10:14:29.075Z,67.08
2022-12-31T10:15:29.908Z,66.27
2022-12-31T10:16:30.773Z,67.16
2022-12-31T10:17:31.593Z,66.85
2022-12-31T10:18:32.424Z,67.16
2022-12-31T10:19:33.252Z,66.95
2022-12-31T10:20:34.084Z,67.05
2022-12-31T10:21:34.918Z,66.24
2022-12-31T10:22:35.743Z,66.31
2022-12-31T10:23:36.596Z,65.90
2022-12-31T10:24:37.412Z,66.31
2022-12-31T10:25:39.475Z,65.59
2022-12-31T10:26:39.069Z,65.80
2022-12-31T10:27:39.886Z,65.97
2022-12-31T10:28:40.776Z,65.56
2022-12-31T10:29:41.583Z,66.17
2022-12-31T10:30:42.446Z,65.46
2022-12-31T10:31:43.243Z,65.25
2022-12-31T10:32:44.107Z,65.15
2022-12-31T10:33:44.981Z,64.95
2022-12-31T10:34:45.809Z,64.74
2022-12-31T10:35:46.633Z,64.51
2022-12-31T10:36:47.463Z,64.64
2022-12-31T10:37:48.284Z,64.61
2022-12-31T10:38:49.123Z,64.81
2022-12-31T10:39:49.945Z,64.64
2022-12-31T10:40:50.775Z,64.64
2022-12-31T10:41:51.613Z,63.89
2022-12-31T10:42:52.446Z,64.51
2022-12-31T10:43:53.282Z,64.40
2022-12-31T10:44:54.108Z,64.40
2022-12-31T10:45:54.953Z,64.61
2022-12-31T10:46:55.773Z,64.61
2022-12-31T10:47:56.614Z,64.61
2022-12-31T10:48:57.444Z,64.30
2022-12-31T10:49:58.269Z,64.00
2022-12-31T10:50:59.101Z,64.10
2022-12-31T10:51:59.923Z,64.10
2022-12-31T10:53:00.755Z,64.48
2022-12-31T10:54:01.597Z,64.07
2022-12-31T10:55:02.425Z,63.56
2022-12-31T10:56:03.247Z,63.66
2022-12-31T10:57:04.076Z,64.04
2022-12-31T10:58:04.910Z,63.63
2022-12-31T10:59:05.767Z,63.63
2022-12-31T11:00:06.586Z,63.12
2022-12-31T11:01:07.605Z,63.63
2022-12-31T11:02:08.083Z,63.22
2022-12-31T11:03:08.577Z,63.12
2022-12-31T11:04:09.384Z,62.88
2022-12-31T11:05:10.216Z,62.37
2022-12-31T11:06:11.032Z,62.68
2022-12-31T11:07:11.863Z,62.17
2022-12-31T11:08:12.682Z,61.97
2022-12-31T11:09:13.531Z,61.83
2022-12-31T11:10:14.347Z,62.04
2022-12-31T11:11:15.189Z,61.63
2022-12-31T11:12:16.026Z,61.73
2022-12-31T11:13:16.857Z,61.63
2022-12-31T11:14:17.696Z,61.83
2022-12-31T11:15:18.518Z,61.80
2022-12-31T11:16:19.429Z,61.60
2022-12-31T11:17:20.233Z,60.38
2022-12-31T11:18:21.079Z,60.28
2022-12-31T11:19:21.902Z,60.17
2022-12-31T11:20:22.729Z,60.55
2022-12-31T11:21:28.302Z,60.35
2022-12-31T11:22:25.275Z,60.35
2022-12-31T11:23:25.107Z,60.45
2022-12-31T11:24:25.953Z,60.66
2022-12-31T11:25:26.774Z,60.96
2022-12-31T11:26:27.606Z,60.55
2022-12-31T11:27:28.437Z,60.76
2022-12-31T11:28:29.271Z,61.07
2022-12-31T11:29:30.113Z,60.35
2022-12-31T11:30:30.940Z,60.25
2022-12-31T11:31:31.833Z,60.55
2022-12-31T11:32:32.641Z,60.66
2022-12-31T11:33:33.511Z,60.66
2022-12-31T11:34:34.301Z,60.45
2022-12-31T11:35:35.138Z,60.76
2022-12-31T11:36:35.961Z,60.25
2022-12-31T11:37:36.798Z,60.55
2022-12-31T11:38:37.651Z,60.25
2022-12-31T11:39:38.467Z,60.05
2022-12-31T11:40:39.281Z,59.43
2022-12-31T11:41:40.130Z,59.41
2022-12-31T11:42:40.940Z,59.71
2022-12-31T11:43:41.769Z,59.71
2022-12-31T11:44:42.618Z,59.81
2022-12-31T11:45:50.247Z,59.71
2022-12-31T11:46:45.254Z,59.30
2022-12-31T11:48:27.991Z,58.80
2022-12-31T11:48:46.816Z,58.89
2022-12-31T11:49:46.648Z,58.49
2022-12-31T11:50:47.448Z,58.49
2022-12-31T11:51:50.658Z,58.46
2022-12-31T11:52:49.191Z,58.76
2022-12-31T11:53:50.025Z,58.26
2022-12-31T11:54:50.860Z,58.15
2022-12-31T11:55:51.679Z,58.15
2022-12-31T11:56:52.509Z,57.65
2022-12-31T11:57:53.342Z,57.85
2022-12-31T11:58:54.175Z,57.52
2022-12-31T11:59:55.044Z,57.21
2022-12-31T12:00:55.881Z,56.81
2022-12-31T12:01:56.691Z,57.52
2022-12-31T12:02:57.581Z,57.21
2022-12-31T12:03:58.417Z,57.21
2022-12-31T12:05:00.255Z,57.21
2022-12-31T12:05:59.869Z,57.21
2022-12-31T12:07:00.685Z,56.47
2022-12-31T12:08:01.513Z,56.88
2022-12-31T12:09:02.344Z,56.07
2022-12-31T12:10:03.187Z,55.35
2022-12-31T12:11:04.017Z,56.07
2022-12-31T12:12:04.844Z,56.47
2022-12-31T12:13:05.674Z,56.77
2022-12-31T12:14:06.503Z,56.16
2022-12-31T12:15:07.343Z,56.07
2022-12-31T12:16:08.239Z,56.04
2022-12-31T12:17:09.096Z,55.43
2022-12-31T12:18:09.913Z,55.73
2022-12-31T12:19:10.786Z,55.73
2022-12-31T12:20:11.657Z,55.83
2022-12-31T12:21:12.460Z,55.33
2022-12-31T12:22:13.275Z,55.83
2022-12-31T12:23:14.088Z,56.14
2022-12-31T12:24:14.978Z,56.55
2022-12-31T12:25:15.779Z,56.04
2022-12-31T12:26:16.610Z,56.04
2022-12-31T12:27:17.442Z,56.14
2022-12-31T12:28:18.288Z,56.45
2022-12-31T12:29:19.098Z,56.14
2022-12-31T12:30:19.956Z,56.45
2022-12-31T12:31:20.844Z,56.45
2022-12-31T12:32:21.680Z,56.55
2022-12-31T12:33:22.508Z,56.77
2022-12-31T12:34:23.386Z,56.27
2022-12-31T12:35:24.170Z,55.96
2022-12-31T12:36:24.996Z,56.57
2022-12-31T12:37:25.829Z,56.37
2022-12-31T12:38:26.658Z,57.08
2022-12-31T12:39:27.479Z,56.77
2022-12-31T12:40:33.706Z,57.29
2022-12-31T12:41:30.071Z,57.18
2022-12-31T12:42:29.884Z,56.68
2022-12-31T12:43:30.707Z,57.29
2022-12-31T12:44:31.541Z,56.77
2022-12-31T12:45:32.367Z,57.29
2022-12-31T12:46:33.251Z,56.77
2022-12-31T12:47:34.055Z,56.68
2022-12-31T12:48:34.877Z,56.37
2022-12-31T12:49:35.728Z,56.57
2022-12-31T12:50:36.546Z,56.57
2022-12-31T12:51:37.378Z,56.88
2022-12-31T12:52:38.209Z,56.57
2022-12-31T12:53:39.038Z,56.98
2022-12-31T12:54:39.879Z,56.37
2022-12-31T12:55:40.722Z,56.37
2022-12-31T12:56:41.552Z,56.16
2022-12-31T12:57:42.386Z,57.08
2022-12-31T12:58:43.213Z,56.37
2022-12-31T12:59:44.065Z,55.86
2022-12-31T13:00:44.971Z,56.47
2022-12-31T13:01:46.048Z,56.77
2022-12-31T13:02:46.487Z,56.37
2022-12-31T13:04:23.386Z,56.47